sensor_id;sensor_type;location;lat;lon;timestamp;P1;durP1;ratioP1;P2;durP2;ratioP2
12681;SDS011;6405;59.208;18.216;2022-08-07T00:00:38;2.80;;;1.00;;
12681;SDS011;6405;59.208;18.216;2022-08-07T00:03:04;2.10;;;0.70;;
12681;SDS011;6405;59.208;18.216;2022-08-07T00:05:30;1.43;;;0.80;;
12681;SDS011;6405;59.208;18.216;2022-08-07T00:07:56;1.93;;;0.70;;
12681;SDS011;6405;59.208;18.216;2022-08-07T00:10:23;0.77;;;0.73;;
12681;SDS011;6405;59.208;18.216;2022-08-07T00:12:50;2.70;;;0.70;;
12681;SDS011;6405;59.208;18.216;2022-08-07T00:15:16;2.37;;;0.70;;
12681;SDS011;6405;59.208;18.216;2022-08-07T00:17:43;1.47;;;0.80;;
12681;SDS011;6405;59.208;18.216;2022-08-07T00:20:10;0.63;;;0.60;;
12681;SDS011;6405;59.208;18.216;2022-08-07T00:22:36;0.63;;;0.60;;
12681;SDS011;6405;59.208;18.216;2022-08-07T00:25:05;2.13;;;0.70;;
12681;SDS011;6405;59.208;18.216;2022-08-07T00:27:33;0.67;;;0.67;;
12681;SDS011;6405;59.208;18.216;2022-08-07T00:30:02;0.60;;;0.60;;
12681;SDS011;6405;59.208;18.216;2022-08-07T00:32:28;1.37;;;0.60;;
12681;SDS011;6405;59.208;18.216;2022-08-07T00:34:54;1.20;;;0.60;;
12681;SDS011;6405;59.208;18.216;2022-08-07T00:37:20;0.90;;;0.60;;
12681;SDS011;6405;59.208;18.216;2022-08-07T00:39:45;3.13;;;0.80;;
12681;SDS011;6405;59.208;18.216;2022-08-07T00:42:13;1.23;;;0.80;;
12681;SDS011;6405;59.208;18.216;2022-08-07T00:44:40;1.70;;;0.83;;
12681;SDS011;6405;59.208;18.216;2022-08-07T00:47:07;0.93;;;0.70;;
12681;SDS011;6405;59.208;18.216;2022-08-07T00:49:34;2.70;;;0.70;;
12681;SDS011;6405;59.208;18.216;2022-08-07T00:52:00;0.70;;;0.70;;
12681;SDS011;6405;59.208;18.216;2022-08-07T00:54:26;0.97;;;0.60;;
12681;SDS011;6405;59.208;18.216;2022-08-07T00:56:52;0.90;;;0.60;;
12681;SDS011;6405;59.208;18.216;2022-08-07T00:59:18;1.67;;;0.63;;
12681;SDS011;6405;59.208;18.216;2022-08-07T01:01:45;0.80;;;0.80;;
12681;SDS011;6405;59.208;18.216;2022-08-07T01:04:13;0.97;;;0.53;;
12681;SDS011;6405;59.208;18.216;2022-08-07T01:06:40;1.07;;;0.63;;
12681;SDS011;6405;59.208;18.216;2022-08-07T01:09:05;1.87;;;0.70;;
12681;SDS011;6405;59.208;18.216;2022-08-07T01:11:32;2.70;;;0.70;;
12681;SDS011;6405;59.208;18.216;2022-08-07T01:13:59;0.83;;;0.50;;
12681;SDS011;6405;59.208;18.216;2022-08-07T01:16:27;1.00;;;0.73;;
12681;SDS011;6405;59.208;18.216;2022-08-07T01:18:54;0.97;;;0.77;;
12681;SDS011;6405;59.208;18.216;2022-08-07T01:21:20;1.80;;;0.70;;
12681;SDS011;6405;59.208;18.216;2022-08-07T01:23:50;2.40;;;0.70;;
12681;SDS011;6405;59.208;18.216;2022-08-07T01:26:18;2.80;;;0.70;;
12681;SDS011;6405;59.208;18.216;2022-08-07T01:28:48;0.80;;;0.60;;
12681;SDS011;6405;59.208;18.216;2022-08-07T01:31:16;1.07;;;0.70;;
12681;SDS011;6405;59.208;18.216;2022-08-07T01:33:47;1.00;;;0.67;;
12681;SDS011;6405;59.208;18.216;2022-08-07T01:36:13;0.67;;;0.60;;
12681;SDS011;6405;59.208;18.216;2022-08-07T01:38:39;0.87;;;0.70;;
12681;SDS011;6405;59.208;18.216;2022-08-07T01:41:06;1.33;;;0.70;;
12681;SDS011;6405;59.208;18.216;2022-08-07T01:43:33;0.83;;;0.70;;
12681;SDS011;6405;59.208;18.216;2022-08-07T01:46:00;0.70;;;0.70;;
12681;SDS011;6405;59.208;18.216;2022-08-07T01:48:27;1.00;;;0.80;;
12681;SDS011;6405;59.208;18.216;2022-08-07T01:51:03;0.90;;;0.70;;
12681;SDS011;6405;59.208;18.216;2022-08-07T01:53:33;0.50;;;0.50;;
12681;SDS011;6405;59.208;18.216;2022-08-07T01:56:10;1.90;;;0.60;;
12681;SDS011;6405;59.208;18.216;2022-08-07T01:58:48;2.17;;;0.50;;
12681;SDS011;6405;59.208;18.216;2022-08-07T02:01:24;3.87;;;0.90;;
12681;SDS011;6405;59.208;18.216;2022-08-07T02:03:58;1.37;;;0.60;;
12681;SDS011;6405;59.208;18.216;2022-08-07T02:06:32;2.13;;;0.60;;
12681;SDS011;6405;59.208;18.216;2022-08-07T02:09:02;1.17;;;0.90;;
12681;SDS011;6405;59.208;18.216;2022-08-07T02:11:32;1.33;;;0.87;;
12681;SDS011;6405;59.208;18.216;2022-08-07T02:14:01;0.80;;;0.70;;
12681;SDS011;6405;59.208;18.216;2022-08-07T02:16:27;0.80;;;0.70;;
12681;SDS011;6405;59.208;18.216;2022-08-07T02:18:54;1.57;;;0.70;;
12681;SDS011;6405;59.208;18.216;2022-08-07T02:21:21;0.70;;;0.70;;
12681;SDS011;6405;59.208;18.216;2022-08-07T02:23:50;1.03;;;0.70;;
12681;SDS011;6405;59.208;18.216;2022-08-07T02:26:17;1.13;;;0.60;;
12681;SDS011;6405;59.208;18.216;2022-08-07T02:28:44;1.27;;;0.70;;
12681;SDS011;6405;59.208;18.216;2022-08-07T02:31:11;2.53;;;0.90;;
12681;SDS011;6405;59.208;18.216;2022-08-07T02:33:39;1.70;;;0.47;;
12681;SDS011;6405;59.208;18.216;2022-08-07T02:36:08;0.60;;;0.60;;
12681;SDS011;6405;59.208;18.216;2022-08-07T02:38:36;0.63;;;0.50;;
12681;SDS011;6405;59.208;18.216;2022-08-07T02:41:04;2.63;;;0.60;;
12681;SDS011;6405;59.208;18.216;2022-08-07T02:43:32;1.40;;;0.73;;
12681;SDS011;6405;59.208;18.216;2022-08-07T02:46:01;1.03;;;0.60;;
12681;SDS011;6405;59.208;18.216;2022-08-07T02:48:29;3.13;;;0.70;;
12681;SDS011;6405;59.208;18.216;2022-08-07T02:50:56;1.70;;;0.67;;
12681;SDS011;6405;59.208;18.216;2022-08-07T02:53:32;0.90;;;0.60;;
12681;SDS011;6405;59.208;18.216;2022-08-07T02:56:01;0.70;;;0.70;;
12681;SDS011;6405;59.208;18.216;2022-08-07T02:58:28;0.47;;;0.47;;
12681;SDS011;6405;59.208;18.216;2022-08-07T03:00:57;2.00;;;0.87;;
12681;SDS011;6405;59.208;18.216;2022-08-07T03:03:26;1.07;;;0.70;;
12681;SDS011;6405;59.208;18.216;2022-08-07T03:05:55;0.70;;;0.60;;
12681;SDS011;6405;59.208;18.216;2022-08-07T03:08:21;0.80;;;0.53;;
12681;SDS011;6405;59.208;18.216;2022-08-07T03:10:48;4.33;;;0.70;;
12681;SDS011;6405;59.208;18.216;2022-08-07T03:13:15;1.47;;;0.50;;
12681;SDS011;6405;59.208;18.216;2022-08-07T03:15:43;2.10;;;0.50;;
12681;SDS011;6405;59.208;18.216;2022-08-07T03:18:10;0.63;;;0.63;;
12681;SDS011;6405;59.208;18.216;2022-08-07T03:20:39;2.50;;;0.70;;
12681;SDS011;6405;59.208;18.216;2022-08-07T03:23:07;1.40;;;0.63;;
12681;SDS011;6405;59.208;18.216;2022-08-07T03:25:35;2.60;;;0.90;;
12681;SDS011;6405;59.208;18.216;2022-08-07T03:28:04;3.43;;;1.00;;
12681;SDS011;6405;59.208;18.216;2022-08-07T03:30:31;1.53;;;0.80;;
12681;SDS011;6405;59.208;18.216;2022-08-07T03:32:58;1.83;;;0.60;;
12681;SDS011;6405;59.208;18.216;2022-08-07T03:35:26;1.43;;;0.70;;
12681;SDS011;6405;59.208;18.216;2022-08-07T03:37:58;1.13;;;0.67;;
12681;SDS011;6405;59.208;18.216;2022-08-07T03:40:28;0.60;;;0.60;;
12681;SDS011;6405;59.208;18.216;2022-08-07T03:42:55;1.17;;;0.90;;
12681;SDS011;6405;59.208;18.216;2022-08-07T03:45:22;3.40;;;0.73;;
12681;SDS011;6405;59.208;18.216;2022-08-07T03:47:50;4.17;;;0.80;;
12681;SDS011;6405;59.208;18.216;2022-08-07T03:50:20;2.13;;;0.80;;
12681;SDS011;6405;59.208;18.216;2022-08-07T03:52:48;1.00;;;0.87;;
12681;SDS011;6405;59.208;18.216;2022-08-07T03:55:15;1.90;;;0.77;;
12681;SDS011;6405;59.208;18.216;2022-08-07T03:57:43;1.43;;;0.90;;
12681;SDS011;6405;59.208;18.216;2022-08-07T04:00:12;2.40;;;0.93;;
12681;SDS011;6405;59.208;18.216;2022-08-07T04:02:40;0.77;;;0.70;;
12681;SDS011;6405;59.208;18.216;2022-08-07T04:05:09;0.83;;;0.70;;
12681;SDS011;6405;59.208;18.216;2022-08-07T04:07:35;2.17;;;1.03;;
12681;SDS011;6405;59.208;18.216;2022-08-07T04:10:03;0.87;;;0.80;;
12681;SDS011;6405;59.208;18.216;2022-08-07T04:12:30;2.03;;;1.00;;
12681;SDS011;6405;59.208;18.216;2022-08-07T04:14:58;2.23;;;0.83;;
12681;SDS011;6405;59.208;18.216;2022-08-07T04:17:24;3.13;;;0.90;;
12681;SDS011;6405;59.208;18.216;2022-08-07T04:19:51;5.60;;;1.47;;
12681;SDS011;6405;59.208;18.216;2022-08-07T04:22:18;6.90;;;1.60;;
12681;SDS011;6405;59.208;18.216;2022-08-07T04:24:45;2.83;;;1.20;;
12681;SDS011;6405;59.208;18.216;2022-08-07T04:27:14;7.33;;;1.70;;
12681;SDS011;6405;59.208;18.216;2022-08-07T04:29:43;7.37;;;1.83;;
12681;SDS011;6405;59.208;18.216;2022-08-07T04:32:09;4.40;;;2.10;;
12681;SDS011;6405;59.208;18.216;2022-08-07T04:34:36;3.23;;;1.93;;
12681;SDS011;6405;59.208;18.216;2022-08-07T04:37:04;4.80;;;2.03;;
12681;SDS011;6405;59.208;18.216;2022-08-07T04:39:31;5.40;;;2.80;;
12681;SDS011;6405;59.208;18.216;2022-08-07T04:42:00;7.30;;;2.50;;
12681;SDS011;6405;59.208;18.216;2022-08-07T04:44:30;6.43;;;1.90;;
12681;SDS011;6405;59.208;18.216;2022-08-07T04:50:00;4.53;;;1.67;;
12681;SDS011;6405;59.208;18.216;2022-08-07T04:55:28;3.67;;;1.57;;
12681;SDS011;6405;59.208;18.216;2022-08-07T05:03:38;3.33;;;1.40;;
12681;SDS011;6405;59.208;18.216;2022-08-07T05:06:18;4.67;;;1.57;;
12681;SDS011;6405;59.208;18.216;2022-08-07T05:09:02;4.40;;;1.50;;
12681;SDS011;6405;59.208;18.216;2022-08-07T05:11:42;3.93;;;2.00;;
12681;SDS011;6405;59.208;18.216;2022-08-07T05:14:13;6.63;;;2.23;;
12681;SDS011;6405;59.208;18.216;2022-08-07T05:16:49;7.80;;;1.63;;
12681;SDS011;6405;59.208;18.216;2022-08-07T05:19:23;7.13;;;1.50;;
12681;SDS011;6405;59.208;18.216;2022-08-07T05:21:52;5.43;;;1.43;;
12681;SDS011;6405;59.208;18.216;2022-08-07T05:24:21;5.30;;;1.47;;
12681;SDS011;6405;59.208;18.216;2022-08-07T05:26:51;4.07;;;1.20;;
12681;SDS011;6405;59.208;18.216;2022-08-07T05:29:20;5.70;;;1.40;;
12681;SDS011;6405;59.208;18.216;2022-08-07T05:31:47;7.10;;;1.50;;
12681;SDS011;6405;59.208;18.216;2022-08-07T05:34:15;5.67;;;1.43;;
12681;SDS011;6405;59.208;18.216;2022-08-07T05:36:49;7.63;;;2.20;;
12681;SDS011;6405;59.208;18.216;2022-08-07T05:39:18;5.27;;;1.87;;
12681;SDS011;6405;59.208;18.216;2022-08-07T05:41:47;5.87;;;1.80;;
12681;SDS011;6405;59.208;18.216;2022-08-07T05:44:19;6.90;;;1.57;;
12681;SDS011;6405;59.208;18.216;2022-08-07T05:46:46;4.87;;;1.73;;
12681;SDS011;6405;59.208;18.216;2022-08-07T05:49:15;4.17;;;1.50;;
12681;SDS011;6405;59.208;18.216;2022-08-07T05:51:43;6.30;;;1.73;;
12681;SDS011;6405;59.208;18.216;2022-08-07T05:54:11;7.17;;;2.00;;
12681;SDS011;6405;59.208;18.216;2022-08-07T05:56:39;4.93;;;1.90;;
12681;SDS011;6405;59.208;18.216;2022-08-07T05:59:07;7.00;;;2.33;;
12681;SDS011;6405;59.208;18.216;2022-08-07T06:01:39;3.90;;;1.70;;
12681;SDS011;6405;59.208;18.216;2022-08-07T06:04:07;6.43;;;1.70;;
12681;SDS011;6405;59.208;18.216;2022-08-07T06:06:35;7.70;;;1.90;;
12681;SDS011;6405;59.208;18.216;2022-08-07T06:09:02;12.77;;;2.10;;
12681;SDS011;6405;59.208;18.216;2022-08-07T06:11:31;4.20;;;1.87;;
12681;SDS011;6405;59.208;18.216;2022-08-07T06:13:58;6.20;;;1.60;;
12681;SDS011;6405;59.208;18.216;2022-08-07T06:16:26;6.53;;;1.83;;
12681;SDS011;6405;59.208;18.216;2022-08-07T06:18:56;6.37;;;1.73;;
12681;SDS011;6405;59.208;18.216;2022-08-07T06:21:26;8.47;;;1.87;;
12681;SDS011;6405;59.208;18.216;2022-08-07T06:23:53;5.67;;;1.73;;
12681;SDS011;6405;59.208;18.216;2022-08-07T06:26:20;4.37;;;1.63;;
12681;SDS011;6405;59.208;18.216;2022-08-07T06:29:04;4.83;;;1.47;;
12681;SDS011;6405;59.208;18.216;2022-08-07T06:31:31;4.13;;;1.40;;
12681;SDS011;6405;59.208;18.216;2022-08-07T06:33:58;5.13;;;2.03;;
12681;SDS011;6405;59.208;18.216;2022-08-07T06:36:26;4.87;;;2.03;;
12681;SDS011;6405;59.208;18.216;2022-08-07T06:38:53;5.70;;;2.10;;
12681;SDS011;6405;59.208;18.216;2022-08-07T06:41:21;7.47;;;1.53;;
12681;SDS011;6405;59.208;18.216;2022-08-07T06:43:52;4.80;;;2.03;;
12681;SDS011;6405;59.208;18.216;2022-08-07T06:46:19;5.43;;;1.53;;
12681;SDS011;6405;59.208;18.216;2022-08-07T06:48:45;3.57;;;1.40;;
12681;SDS011;6405;59.208;18.216;2022-08-07T06:51:15;7.57;;;1.87;;
12681;SDS011;6405;59.208;18.216;2022-08-07T06:53:44;5.20;;;1.60;;
12681;SDS011;6405;59.208;18.216;2022-08-07T06:56:13;5.57;;;1.53;;
12681;SDS011;6405;59.208;18.216;2022-08-07T06:58:41;6.27;;;1.50;;
12681;SDS011;6405;59.208;18.216;2022-08-07T07:01:09;6.53;;;1.77;;
12681;SDS011;6405;59.208;18.216;2022-08-07T07:03:38;5.77;;;1.50;;
12681;SDS011;6405;59.208;18.216;2022-08-07T07:06:09;4.00;;;1.67;;
12681;SDS011;6405;59.208;18.216;2022-08-07T07:08:36;5.10;;;1.90;;
12681;SDS011;6405;59.208;18.216;2022-08-07T07:11:03;4.77;;;1.77;;
12681;SDS011;6405;59.208;18.216;2022-08-07T07:13:34;3.80;;;1.43;;
12681;SDS011;6405;59.208;18.216;2022-08-07T07:16:10;8.07;;;1.97;;
12681;SDS011;6405;59.208;18.216;2022-08-07T07:18:45;5.93;;;1.70;;
12681;SDS011;6405;59.208;18.216;2022-08-07T07:21:21;4.57;;;1.80;;
12681;SDS011;6405;59.208;18.216;2022-08-07T07:23:54;5.63;;;1.63;;
12681;SDS011;6405;59.208;18.216;2022-08-07T07:26:22;5.17;;;1.50;;
12681;SDS011;6405;59.208;18.216;2022-08-07T07:28:53;4.90;;;1.53;;
12681;SDS011;6405;59.208;18.216;2022-08-07T07:31:31;7.17;;;1.80;;
12681;SDS011;6405;59.208;18.216;2022-08-07T07:34:05;3.70;;;1.30;;
12681;SDS011;6405;59.208;18.216;2022-08-07T07:36:35;5.67;;;1.70;;
12681;SDS011;6405;59.208;18.216;2022-08-07T07:39:05;3.37;;;1.00;;
12681;SDS011;6405;59.208;18.216;2022-08-07T07:41:35;3.57;;;1.10;;
12681;SDS011;6405;59.208;18.216;2022-08-07T07:44:05;9.40;;;1.57;;
12681;SDS011;6405;59.208;18.216;2022-08-07T07:46:35;2.03;;;1.03;;
12681;SDS011;6405;59.208;18.216;2022-08-07T07:49:06;4.73;;;1.47;;
12681;SDS011;6405;59.208;18.216;2022-08-07T07:51:34;2.20;;;0.93;;
12681;SDS011;6405;59.208;18.216;2022-08-07T07:54:01;4.50;;;1.40;;
12681;SDS011;6405;59.208;18.216;2022-08-07T07:56:30;4.00;;;1.40;;
12681;SDS011;6405;59.208;18.216;2022-08-07T07:58:59;5.10;;;1.57;;
12681;SDS011;6405;59.208;18.216;2022-08-07T08:01:29;4.00;;;1.60;;
12681;SDS011;6405;59.208;18.216;2022-08-07T08:03:59;3.57;;;1.30;;
12681;SDS011;6405;59.208;18.216;2022-08-07T08:06:30;4.97;;;1.23;;
12681;SDS011;6405;59.208;18.216;2022-08-07T08:08:59;3.93;;;1.00;;
12681;SDS011;6405;59.208;18.216;2022-08-07T08:11:29;4.40;;;1.13;;
12681;SDS011;6405;59.208;18.216;2022-08-07T08:13:56;4.03;;;0.93;;
12681;SDS011;6405;59.208;18.216;2022-08-07T08:16:25;5.80;;;1.10;;
12681;SDS011;6405;59.208;18.216;2022-08-07T08:18:59;3.43;;;0.80;;
12681;SDS011;6405;59.208;18.216;2022-08-07T08:21:30;2.73;;;1.10;;
12681;SDS011;6405;59.208;18.216;2022-08-07T08:24:15;2.87;;;1.10;;
12681;SDS011;6405;59.208;18.216;2022-08-07T08:27:01;7.00;;;1.47;;
12681;SDS011;6405;59.208;18.216;2022-08-07T08:29:35;2.10;;;0.80;;
12681;SDS011;6405;59.208;18.216;2022-08-07T08:32:08;1.40;;;0.90;;
12681;SDS011;6405;59.208;18.216;2022-08-07T08:34:37;5.77;;;1.20;;
12681;SDS011;6405;59.208;18.216;2022-08-07T08:37:07;2.70;;;0.90;;
12681;SDS011;6405;59.208;18.216;2022-08-07T08:39:36;2.33;;;1.07;;
12681;SDS011;6405;59.208;18.216;2022-08-07T08:42:06;6.43;;;1.37;;
12681;SDS011;6405;59.208;18.216;2022-08-07T08:45:02;3.77;;;0.93;;
12681;SDS011;6405;59.208;18.216;2022-08-07T08:50:39;4.77;;;1.30;;
12681;SDS011;6405;59.208;18.216;2022-08-07T09:01:14;2.30;;;0.77;;
12681;SDS011;6405;59.208;18.216;2022-08-07T09:06:43;2.47;;;0.90;;
12681;SDS011;6405;59.208;18.216;2022-08-07T09:12:04;1.40;;;0.70;;
12681;SDS011;6405;59.208;18.216;2022-08-07T09:17:59;1.00;;;0.60;;
12681;SDS011;6405;59.208;18.216;2022-08-07T09:23:54;1.83;;;0.80;;
12681;SDS011;6405;59.208;18.216;2022-08-07T09:29:45;1.23;;;0.57;;
12681;SDS011;6405;59.208;18.216;2022-08-07T09:38:18;2.37;;;0.67;;
12681;SDS011;6405;59.208;18.216;2022-08-07T09:41:05;2.83;;;0.63;;
12681;SDS011;6405;59.208;18.216;2022-08-07T09:43:55;1.83;;;0.50;;
12681;SDS011;6405;59.208;18.216;2022-08-07T09:46:41;3.00;;;0.70;;
12681;SDS011;6405;59.208;18.216;2022-08-07T09:55:09;1.40;;;0.60;;
12681;SDS011;6405;59.208;18.216;2022-08-07T10:04:07;0.70;;;0.50;;
12681;SDS011;6405;59.208;18.216;2022-08-07T10:12:39;3.00;;;1.10;;
12681;SDS011;6405;59.208;18.216;2022-08-07T10:17:55;1.93;;;0.93;;
12681;SDS011;6405;59.208;18.216;2022-08-07T10:21:01;2.30;;;0.87;;
12681;SDS011;6405;59.208;18.216;2022-08-07T10:29:18;2.70;;;1.00;;
12681;SDS011;6405;59.208;18.216;2022-08-07T10:40:02;4.17;;;1.00;;
12681;SDS011;6405;59.208;18.216;2022-08-07T10:42:31;4.30;;;1.23;;
12681;SDS011;6405;59.208;18.216;2022-08-07T10:50:34;3.27;;;0.77;;
12681;SDS011;6405;59.208;18.216;2022-08-07T10:56:04;1.57;;;0.80;;
12681;SDS011;6405;59.208;18.216;2022-08-07T10:58:45;1.90;;;0.90;;
12681;SDS011;6405;59.208;18.216;2022-08-07T11:04:23;3.07;;;0.77;;
12681;SDS011;6405;59.208;18.216;2022-08-07T11:10:07;2.10;;;1.33;;
12681;SDS011;6405;59.208;18.216;2022-08-07T11:12:47;1.60;;;0.87;;
12681;SDS011;6405;59.208;18.216;2022-08-07T11:15:38;2.77;;;1.00;;
12681;SDS011;6405;59.208;18.216;2022-08-07T11:18:13;2.20;;;0.63;;
12681;SDS011;6405;59.208;18.216;2022-08-07T11:20:51;4.87;;;0.80;;
12681;SDS011;6405;59.208;18.216;2022-08-07T11:23:34;1.00;;;0.70;;
12681;SDS011;6405;59.208;18.216;2022-08-07T11:26:40;2.20;;;0.73;;
12681;SDS011;6405;59.208;18.216;2022-08-07T11:31:59;3.53;;;1.10;;
12681;SDS011;6405;59.208;18.216;2022-08-07T11:34:36;2.20;;;1.07;;
12681;SDS011;6405;59.208;18.216;2022-08-07T11:37:12;1.83;;;0.97;;
12681;SDS011;6405;59.208;18.216;2022-08-07T11:43:01;3.50;;;1.13;;
12681;SDS011;6405;59.208;18.216;2022-08-07T11:45:52;3.63;;;0.83;;
12681;SDS011;6405;59.208;18.216;2022-08-07T11:53:56;2.10;;;0.80;;
12681;SDS011;6405;59.208;18.216;2022-08-07T12:04:52;1.47;;;0.87;;
12681;SDS011;6405;59.208;18.216;2022-08-07T12:07:43;2.70;;;1.00;;
12681;SDS011;6405;59.208;18.216;2022-08-07T12:10:37;2.57;;;0.70;;
12681;SDS011;6405;59.208;18.216;2022-08-07T12:13:06;2.07;;;0.80;;
12681;SDS011;6405;59.208;18.216;2022-08-07T12:15:38;1.53;;;0.80;;
12681;SDS011;6405;59.208;18.216;2022-08-07T12:18:18;2.33;;;0.90;;
12681;SDS011;6405;59.208;18.216;2022-08-07T12:20:59;2.60;;;0.80;;
12681;SDS011;6405;59.208;18.216;2022-08-07T12:23:30;2.33;;;0.80;;
12681;SDS011;6405;59.208;18.216;2022-08-07T12:26:27;2.17;;;0.90;;
12681;SDS011;6405;59.208;18.216;2022-08-07T12:29:02;1.83;;;0.67;;
12681;SDS011;6405;59.208;18.216;2022-08-07T12:34:04;2.60;;;1.03;;
12681;SDS011;6405;59.208;18.216;2022-08-07T12:36:33;2.17;;;0.90;;
12681;SDS011;6405;59.208;18.216;2022-08-07T12:39:02;0.80;;;0.47;;
12681;SDS011;6405;59.208;18.216;2022-08-07T12:41:32;2.00;;;0.60;;
12681;SDS011;6405;59.208;18.216;2022-08-07T12:44:03;0.93;;;0.53;;
12681;SDS011;6405;59.208;18.216;2022-08-07T12:49:31;1.97;;;0.60;;
12681;SDS011;6405;59.208;18.216;2022-08-07T12:52:03;1.43;;;0.47;;
12681;SDS011;6405;59.208;18.216;2022-08-07T12:55:16;2.27;;;1.00;;
12681;SDS011;6405;59.208;18.216;2022-08-07T12:57:36;2.13;;;0.90;;
12681;SDS011;6405;59.208;18.216;2022-08-07T13:00:03;2.37;;;0.80;;
12681;SDS011;6405;59.208;18.216;2022-08-07T13:02:55;1.53;;;0.70;;
12681;SDS011;6405;59.208;18.216;2022-08-07T13:12:10;2.43;;;0.73;;
12681;SDS011;6405;59.208;18.216;2022-08-07T13:23:48;0.97;;;0.60;;
12681;SDS011;6405;59.208;18.216;2022-08-07T13:29:23;2.17;;;0.80;;
12681;SDS011;6405;59.208;18.216;2022-08-07T13:32:00;1.17;;;0.67;;
12681;SDS011;6405;59.208;18.216;2022-08-07T13:37:09;2.80;;;0.93;;
12681;SDS011;6405;59.208;18.216;2022-08-07T13:42:36;3.07;;;0.93;;
12681;SDS011;6405;59.208;18.216;2022-08-07T13:45:04;1.60;;;0.80;;
12681;SDS011;6405;59.208;18.216;2022-08-07T13:47:37;1.47;;;0.73;;
12681;SDS011;6405;59.208;18.216;2022-08-07T13:50:06;2.00;;;0.90;;
12681;SDS011;6405;59.208;18.216;2022-08-07T13:52:37;3.47;;;0.80;;
12681;SDS011;6405;59.208;18.216;2022-08-07T13:55:13;1.07;;;0.50;;
12681;SDS011;6405;59.208;18.216;2022-08-07T13:57:44;3.23;;;0.83;;
12681;SDS011;6405;59.208;18.216;2022-08-07T14:00:14;1.23;;;0.67;;
12681;SDS011;6405;59.208;18.216;2022-08-07T14:02:42;3.73;;;0.90;;
12681;SDS011;6405;59.208;18.216;2022-08-07T14:05:12;1.77;;;0.80;;
12681;SDS011;6405;59.208;18.216;2022-08-07T14:07:41;2.70;;;1.10;;
12681;SDS011;6405;59.208;18.216;2022-08-07T14:10:10;2.37;;;0.90;;
12681;SDS011;6405;59.208;18.216;2022-08-07T14:12:40;2.50;;;0.97;;
12681;SDS011;6405;59.208;18.216;2022-08-07T14:15:34;2.70;;;1.33;;
12681;SDS011;6405;59.208;18.216;2022-08-07T14:18:15;1.10;;;0.80;;
12681;SDS011;6405;59.208;18.216;2022-08-07T14:20:43;1.80;;;0.87;;
12681;SDS011;6405;59.208;18.216;2022-08-07T14:26:02;1.30;;;0.63;;
12681;SDS011;6405;59.208;18.216;2022-08-07T14:28:35;1.67;;;0.83;;
12681;SDS011;6405;59.208;18.216;2022-08-07T14:31:06;1.50;;;0.63;;
12681;SDS011;6405;59.208;18.216;2022-08-07T14:33:34;2.13;;;0.80;;
12681;SDS011;6405;59.208;18.216;2022-08-07T14:36:01;1.57;;;0.80;;
12681;SDS011;6405;59.208;18.216;2022-08-07T14:38:29;1.83;;;0.90;;
12681;SDS011;6405;59.208;18.216;2022-08-07T14:40:58;0.97;;;0.80;;
12681;SDS011;6405;59.208;18.216;2022-08-07T14:43:27;2.53;;;0.90;;
12681;SDS011;6405;59.208;18.216;2022-08-07T14:45:57;1.67;;;0.80;;
12681;SDS011;6405;59.208;18.216;2022-08-07T14:48:26;1.23;;;0.70;;
12681;SDS011;6405;59.208;18.216;2022-08-07T14:50:56;1.23;;;0.70;;
12681;SDS011;6405;59.208;18.216;2022-08-07T14:53:25;2.90;;;0.90;;
12681;SDS011;6405;59.208;18.216;2022-08-07T14:55:55;2.23;;;1.10;;
12681;SDS011;6405;59.208;18.216;2022-08-07T14:58:30;1.57;;;0.90;;
12681;SDS011;6405;59.208;18.216;2022-08-07T15:01:00;2.20;;;0.90;;
12681;SDS011;6405;59.208;18.216;2022-08-07T15:03:27;1.20;;;0.80;;
12681;SDS011;6405;59.208;18.216;2022-08-07T15:05:55;1.23;;;0.77;;
12681;SDS011;6405;59.208;18.216;2022-08-07T15:08:31;1.70;;;0.80;;
12681;SDS011;6405;59.208;18.216;2022-08-07T15:11:04;3.23;;;1.00;;
12681;SDS011;6405;59.208;18.216;2022-08-07T15:13:34;2.47;;;0.90;;
12681;SDS011;6405;59.208;18.216;2022-08-07T15:16:09;2.87;;;0.77;;
12681;SDS011;6405;59.208;18.216;2022-08-07T15:18:37;0.80;;;0.80;;
12681;SDS011;6405;59.208;18.216;2022-08-07T15:21:42;2.13;;;0.87;;
12681;SDS011;6405;59.208;18.216;2022-08-07T15:24:08;1.33;;;0.80;;
12681;SDS011;6405;59.208;18.216;2022-08-07T15:29:29;2.13;;;0.97;;
12681;SDS011;6405;59.208;18.216;2022-08-07T15:32:01;0.80;;;0.70;;
12681;SDS011;6405;59.208;18.216;2022-08-07T15:34:35;1.87;;;0.83;;
12681;SDS011;6405;59.208;18.216;2022-08-07T15:37:29;0.70;;;0.70;;
12681;SDS011;6405;59.208;18.216;2022-08-07T15:40:00;1.57;;;0.90;;
12681;SDS011;6405;59.208;18.216;2022-08-07T15:45:03;4.33;;;1.00;;
12681;SDS011;6405;59.208;18.216;2022-08-07T15:47:31;3.17;;;0.83;;
12681;SDS011;6405;59.208;18.216;2022-08-07T15:50:04;2.40;;;0.80;;
12681;SDS011;6405;59.208;18.216;2022-08-07T15:52:34;1.70;;;0.90;;
12681;SDS011;6405;59.208;18.216;2022-08-07T15:55:03;1.70;;;0.77;;
12681;SDS011;6405;59.208;18.216;2022-08-07T15:57:32;1.27;;;0.60;;
12681;SDS011;6405;59.208;18.216;2022-08-07T16:00:00;2.60;;;0.97;;
12681;SDS011;6405;59.208;18.216;2022-08-07T16:02:30;1.57;;;0.60;;
12681;SDS011;6405;59.208;18.216;2022-08-07T16:05:01;1.13;;;0.90;;
12681;SDS011;6405;59.208;18.216;2022-08-07T16:07:38;0.87;;;0.80;;
12681;SDS011;6405;59.208;18.216;2022-08-07T16:10:11;1.33;;;0.83;;
12681;SDS011;6405;59.208;18.216;2022-08-07T16:18:04;1.00;;;0.80;;
12681;SDS011;6405;59.208;18.216;2022-08-07T16:20:58;0.90;;;0.70;;
12681;SDS011;6405;59.208;18.216;2022-08-07T16:23:32;1.83;;;0.70;;
12681;SDS011;6405;59.208;18.216;2022-08-07T16:29:46;2.80;;;0.90;;
12681;SDS011;6405;59.208;18.216;2022-08-07T16:33:19;1.43;;;1.00;;
12681;SDS011;6405;59.208;18.216;2022-08-07T16:35:40;1.30;;;0.87;;
12681;SDS011;6405;59.208;18.216;2022-08-07T16:41:00;0.90;;;0.70;;
12681;SDS011;6405;59.208;18.216;2022-08-07T17:02:35;1.40;;;0.90;;
12681;SDS011;6405;59.208;18.216;2022-08-07T17:07:56;1.23;;;0.70;;
12681;SDS011;6405;59.208;18.216;2022-08-07T17:21:41;1.43;;;0.90;;
12681;SDS011;6405;59.208;18.216;2022-08-07T17:24:26;2.00;;;1.00;;
12681;SDS011;6405;59.208;18.216;2022-08-07T17:27:28;2.90;;;1.10;;
12681;SDS011;6405;59.208;18.216;2022-08-07T17:30:03;2.93;;;1.30;;
12681;SDS011;6405;59.208;18.216;2022-08-07T17:35:12;3.03;;;1.30;;
12681;SDS011;6405;59.208;18.216;2022-08-07T17:37:58;2.97;;;1.23;;
12681;SDS011;6405;59.208;18.216;2022-08-07T17:41:07;2.57;;;1.20;;
12681;SDS011;6405;59.208;18.216;2022-08-07T17:43:42;1.80;;;1.00;;
12681;SDS011;6405;59.208;18.216;2022-08-07T17:51:49;1.93;;;1.10;;
12681;SDS011;6405;59.208;18.216;2022-08-07T17:54:21;1.37;;;1.00;;
12681;SDS011;6405;59.208;18.216;2022-08-07T17:56:57;6.13;;;1.30;;
12681;SDS011;6405;59.208;18.216;2022-08-07T17:59:34;4.20;;;1.20;;
12681;SDS011;6405;59.208;18.216;2022-08-07T18:02:13;1.17;;;1.07;;
12681;SDS011;6405;59.208;18.216;2022-08-07T18:05:13;1.40;;;1.20;;
12681;SDS011;6405;59.208;18.216;2022-08-07T18:07:39;1.33;;;1.20;;
12681;SDS011;6405;59.208;18.216;2022-08-07T18:10:19;1.43;;;1.03;;
12681;SDS011;6405;59.208;18.216;2022-08-07T18:15:27;1.87;;;1.27;;
12681;SDS011;6405;59.208;18.216;2022-08-07T18:18:05;1.20;;;1.00;;
12681;SDS011;6405;59.208;18.216;2022-08-07T18:20:38;3.50;;;1.13;;
12681;SDS011;6405;59.208;18.216;2022-08-07T18:23:13;1.77;;;1.13;;
12681;SDS011;6405;59.208;18.216;2022-08-07T18:25:50;2.43;;;1.27;;
12681;SDS011;6405;59.208;18.216;2022-08-07T18:28:26;1.33;;;1.17;;
12681;SDS011;6405;59.208;18.216;2022-08-07T18:31:07;1.57;;;1.07;;
12681;SDS011;6405;59.208;18.216;2022-08-07T18:43:13;1.97;;;1.33;;
12681;SDS011;6405;59.208;18.216;2022-08-07T18:45:49;1.20;;;1.10;;
12681;SDS011;6405;59.208;18.216;2022-08-07T18:48:29;3.50;;;1.30;;
12681;SDS011;6405;59.208;18.216;2022-08-07T18:53:57;4.03;;;1.50;;
12681;SDS011;6405;59.208;18.216;2022-08-07T18:56:35;1.80;;;1.47;;